Flight Track Log - Related Links

Times and Time Zones

All times are in EDT time to prevent confusion due to time zone crossing. See the CTL13 flight status page for this flight to view local times or setup timezone preferences in your user account.

Time Position Orientation Groundspeed Altitude Reporting Facility
EDT Latitude Longitude Course Direction KTS MPH feet Rate Location/Type
Tue 10:19:03 PM 41.8000 -87.6333 90° East 142 163 3,800  Level Chicago TRACON
Tue 10:20:03 PM 41.8000 -87.5833 90° East 146 168 4,900 1,050 Climbing Chicago TRACON
Tue 10:21:03 PM 41.8000 -87.5333 90° East 152 175 5,900 500 Climbing Chicago TRACON
Tue 10:22:03 PM 41.8000 -87.4667 90° East 187 215 5,900  Level Chicago TRACON
Tue 10:23:00 PM 41.7787 -87.3590 93° East  Level FlightAware Approximate
Tue 10:23:11 PM 41.8050 -87.3931 85° East 183 211 5,900  Level Chicago Center
Tue 10:24:12 PM 41.8078 -87.3200 87° East 196 226 5,900  Level Chicago Center
Tue 10:25:14 PM 41.8125 -87.2311 86° East 200 230 5,900  Level Chicago Center
Tue 10:26:15 PM 41.8150 -87.1581 87° East 198 228 5,900  Level Chicago Center
Tue 10:27:16 PM 41.8189 -87.0847 86° East 200 230 5,900  Level Chicago Center
Tue 10:28:18 PM 41.8453 -87.0244 60° Northeast 197 227 5,900  Level Chicago Center
Tue 10:29:19 PM 41.8817 -86.9733 46° Northeast 192 221 5,900 -98 Level Chicago Center
Tue 10:30:20 PM 41.9161 -86.9203 49° Northeast 191 220 5,700 -390 Descending Chicago Center
Tue 10:31:22 PM 41.9547 -86.8603 49° Northeast 210 242 5,100 -390 Descending Chicago Center
Tue 10:32:23 PM 41.9914 -86.8036 49° Northeast 205 236 4,900 -98 Descending Chicago Center
Tue 10:33:24 PM 42.0375 -86.7439 44° Northeast 195 224 4,900  Level Chicago Center
Tue 10:34:25 PM 42.0728 -86.6925 47° Northeast 190 219 4,900  Level Chicago Center
Tue 10:35:27 PM 42.1086 -86.6397 48° Northeast 190 219 4,900  Level Chicago Center
Tue 10:36:28 PM 42.1431 -86.5867 49° Northeast 190 219 4,900  Level Chicago Center
Tue 10:37:29 PM 42.1789 -86.5344 47° Northeast 190 219 4,900 -146 Level Chicago Center
Tue 10:38:31 PM 42.2175 -86.4828 45° Northeast 193 222 4,600 -488 Descending Chicago Center
Tue 10:39:32 PM 42.2561 -86.4233 49° Northeast 206 237 3,900 -639 Descending Chicago Center
Tue 10:40:33 PM 42.2994 -86.3600 47° Northeast 203 234 3,300 -488 Descending Chicago Center
Tue 10:41:35 PM 42.3283 -86.2978 58° Northeast 198 228 2,900 -195 Descending Chicago Center
Tue 10:42:36 PM 42.3547 -86.2475 55° Northeast 177 204 2,900  Level Chicago Center
Tue 10:43:37 PM 42.3850 -86.2019 48° Northeast 167 192 2,900  Level Chicago Center
Tue 10:44:39 PM 42.4119 -86.1503 55° Northeast 166 191 2,900  Level Chicago Center
Tue 10:45:40 PM 42.4397 -86.0994 53° Northeast 168 193 2,900  Level Chicago Center
Tue 10:46:41 PM 42.4700 -86.0525 49° Northeast 167 192 2,900  Level Chicago Center
Tue 10:47:42 PM 42.4958 -86.0011 56° Northeast 166 191 2,900  Level Chicago Center
Tue 10:48:44 PM 42.5244 -85.9522 52° Northeast 167 192 2,900  Level Chicago Center
Tue 10:49:45 PM 42.5578 -85.8931 53° Northeast 166 191 2,900  Level Chicago Center
Tue 10:50:46 PM 42.5850 -85.8444 53° Northeast 164 189 2,900  Level Chicago Center
Tue 10:51:47 PM 42.6131 -85.7978 51° Northeast 162 186 2,900  Level Chicago Center
Tue 10:52:49 PM 42.6397 -85.7503 53° Northeast 160 184 2,900  Level Chicago Center
Tue 10:53:50 PM 42.6656 -85.7042 53° Northeast 157 181 2,900  Level Chicago Center
Tue 10:54:51 PM 42.6919 -85.6600 51° Northeast 152 175 2,900  Level Chicago Center
Tue 10:55:53 PM 42.7086 -85.6083 66° East 159 183 2,900  Level Chicago Center
Tue 10:56:54 PM 42.7200 -85.5533 74° East 155 178 2,900  Level Chicago Center
Tue 10:57:55 PM 42.7378 -85.4956 67° East 145 167 2,900 -148 Level Chicago Center
Tue 10:58:56 PM 42.7761 -85.4942 North 143 165 2,600 -439 Descending Chicago Center
Tue 10:59:58 PM 42.8117 -85.5022 351° North 138 159 2,000 -537 Descending Chicago Center
Tue 11:00:59 PM 42.8431 -85.5086 352° North 126 145 1,500 -492 Descending Chicago Center
Tue 11:02:00 PM 42.8694 -85.5147 350° North 120 138 1,000 -492 Descending Chicago Center
Tue 11:03:00 PM 42.8667 -85.5167 56° Northeast  Level FlightAware Approximate
Tue 11:10:00 PM 42.8808 -85.5228 56° Northeast  Level Estimated

Login

Don't have an account? Register now (free) for customized features, flight alerts, and more!